Time;durP1;ratioP1;P1;durP2;ratioP2;P2;SDS_P1;SDS_P2;PMS_P1;PMS_P2;Temp;Humidity;BMP_temperature;BMP_pressure;BME280_temperature;BME280_humidity;BME280_pressure;Samples;Min_cycle;Max_cycle;Signal;HPM_P1;HPM_P2
2022/09/25 00:00:11;;;;;;;;;;;10.00;99.90;;;;;;5040224;28;20190;-68
2022/09/25 00:02:36;;;;;;;;;;;10.00;99.90;;;;;;5042282;28;19916;-68
2022/09/25 00:05:02;;;;;;;;;;;10.00;99.90;;;;;;5038332;28;20150;-68
2022/09/25 00:07:27;;;;;;;;;;;10.00;99.90;;;;;;5035876;28;19998;-68
2022/09/25 00:09:53;;;;;;;;;;;10.00;99.90;;;;;;5036921;28;20490;-67
2022/09/25 00:12:18;;;;;;;;;;;10.00;99.90;;;;;;5040446;28;20034;-68
2022/09/25 00:14:48;;;;;;;;;;;10.00;99.90;;;;;;5038674;28;20269;-68
2022/09/25 00:17:14;;;;;;;;;;;10.00;99.90;;;;;;5040163;28;19925;-68
2022/09/25 00:19:51;;;;;;;;;;;9.90;99.90;;;;;;5039031;28;19921;-67
2022/09/25 00:22:17;;;;;;;;;;;9.90;99.90;;;;;;5039772;28;19973;-67
2022/09/25 00:24:43;;;;;;;;;;;9.90;99.90;;;;;;5034565;28;20306;-67
2022/09/25 00:27:08;;;;;;;;;;;10.00;99.90;;;;;;5038180;28;19927;-68
2022/09/25 00:29:38;;;;;;;;;;;10.10;99.90;;;;;;5038682;28;19924;-67
2022/09/25 00:32:04;;;;;;;;;;;10.00;99.90;;;;;;5041378;28;20104;-67
2022/09/25 00:34:30;;;;;;;;;;;10.00;99.90;;;;;;5041650;28;19943;-68
2022/09/25 00:36:55;;;;;;;;;;;10.00;99.90;;;;;;5039234;28;19939;-67
2022/09/25 00:39:21;;;;;;;;;;;10.00;99.90;;;;;;5037892;28;19917;-67
2022/09/25 00:41:46;;;;;;;;;;;10.00;99.90;;;;;;5036848;28;20288;-68
2022/09/25 00:44:31;;;;;;;;;;;10.00;99.90;;;;;;5043636;28;19975;-67
2022/09/25 00:46:56;;;;;;;;;;;10.00;99.90;;;;;;5040854;28;20659;-68
2022/09/25 00:49:23;;;;;;;;;;;10.00;99.90;;;;;;5036653;28;19917;-67
2022/09/25 00:51:49;;;;;;;;;;;10.00;99.90;;;;;;5036081;28;19959;-67
2022/09/25 00:54:21;;;;;;;;;;;10.00;99.90;;;;;;5039066;28;20393;-67
2022/09/25 00:56:47;;;;;;;;;;;9.90;99.90;;;;;;5037249;28;20021;-67
2022/09/25 00:59:15;;;;;;;;;;;10.00;99.90;;;;;;5040127;28;19924;-67
2022/09/25 01:01:41;;;;;;;;;;;10.00;99.90;;;;;;5034785;28;19927;-67
2022/09/25 01:04:07;;;;;;;;;;;10.00;99.90;;;;;;5035601;28;19917;-68
2022/09/25 01:06:33;;;;;;;;;;;10.10;99.90;;;;;;5039302;28;20752;-68
2022/09/25 01:08:59;;;;;;;;;;;10.00;99.90;;;;;;5038988;28;20649;-67
2022/09/25 01:11:24;;;;;;;;;;;10.00;99.90;;;;;;5038701;28;19951;-68
2022/09/25 01:13:55;;;;;;;;;;;10.00;99.90;;;;;;5038178;28;20007;-68
2022/09/25 01:16:44;;;;;;;;;;;10.00;99.90;;;;;;5034718;28;19947;-68
2022/09/25 01:19:30;;;;;;;;;;;10.00;99.90;;;;;;5037433;28;19931;-68
2022/09/25 01:22:14;;;;;;;;;;;10.00;99.90;;;;;;5038861;28;19940;-67
2022/09/25 01:24:59;;;;;;;;;;;10.00;99.90;;;;;;5036515;28;19967;-68
2022/09/25 01:27:50;;;;;;;;;;;10.10;99.90;;;;;;5037432;28;19923;-68
2022/09/25 01:30:17;;;;;;;;;;;10.10;99.90;;;;;;5001023;28;19936;-68
2022/09/25 01:32:55;;;;;;;;;;;10.10;99.90;;;;;;5023501;28;19960;-68
2022/09/25 01:35:30;;;;;;;;;;;10.10;99.90;;;;;;5031108;28;20371;-68
2022/09/25 01:37:55;;;;;;;;;;;10.10;99.90;;;;;;5040501;28;20025;-67
2022/09/25 01:40:33;;;;;;;;;;;10.00;99.90;;;;;;5037656;28;19916;-67
2022/09/25 01:43:13;;;;;;;;;;;10.00;99.90;;;;;;5037888;28;19972;-68
2022/09/25 01:45:39;;;;;;;;;;;10.00;99.90;;;;;;5023503;28;19920;-67
2022/09/25 01:48:06;;;;;;;;;;;10.00;99.90;;;;;;5032751;28;19936;-67
2022/09/25 01:50:35;;;;;;;;;;;9.90;99.90;;;;;;5040615;28;19977;-67
2022/09/25 01:53:03;;;;;;;;;;;9.90;99.90;;;;;;5040436;28;20315;-67
2022/09/25 01:55:37;;;;;;;;;;;9.80;99.90;;;;;;5040522;28;20405;-68
2022/09/25 01:58:07;;;;;;;;;;;9.70;99.90;;;;;;5041089;28;19928;-68
2022/09/25 02:00:36;;;;;;;;;;;9.70;99.90;;;;;;5040633;28;19985;-68
2022/09/25 02:03:11;;;;;;;;;;;9.70;99.90;;;;;;5049565;28;19927;-67
2022/09/25 02:05:42;;;;;;;;;;;9.70;99.90;;;;;;5041148;28;19925;-68
2022/09/25 02:08:17;;;;;;;;;;;9.60;99.90;;;;;;5050529;28;19924;-68
2022/09/25 02:10:47;;;;;;;;;;;9.60;99.90;;;;;;5046110;28;19925;-67
2022/09/25 02:13:16;;;;;;;;;;;9.60;99.90;;;;;;5039526;28;19916;-69
2022/09/25 02:15:54;;;;;;;;;;;9.60;99.90;;;;;;5023107;28;19925;-68
2022/09/25 02:21:07;;;;;;;;;;;9.60;99.90;;;;;;5040668;28;19924;-68
2022/09/25 02:23:44;;;;;;;;;;;9.60;99.90;;;;;;5044794;28;20299;-69
2022/09/25 02:26:15;;;;;;;;;;;9.50;99.90;;;;;;5037945;28;19992;-69
2022/09/25 02:28:41;;;;;;;;;;;9.50;99.90;;;;;;5038177;28;20049;-68
2022/09/25 02:31:08;;;;;;;;;;;9.50;99.90;;;;;;5039076;28;19916;-68
2022/09/25 02:33:34;;;;;;;;;;;9.50;99.90;;;;;;5039362;28;19916;-69
2022/09/25 02:36:00;;;;;;;;;;;9.50;99.90;;;;;;5026924;28;19932;-69
2022/09/25 02:38:26;;;;;;;;;;;9.50;99.90;;;;;;5017686;28;20387;-69
2022/09/25 02:40:55;;;;;;;;;;;9.60;99.90;;;;;;5037624;28;19920;-69
2022/09/25 02:43:23;;;;;;;;;;;9.60;99.90;;;;;;5040897;28;20005;-69
2022/09/25 02:46:01;;;;;;;;;;;9.60;99.90;;;;;;5043480;28;19916;-68
2022/09/25 02:48:37;;;;;;;;;;;9.50;99.90;;;;;;5048688;28;19990;-68
2022/09/25 02:51:09;;;;;;;;;;;9.50;99.90;;;;;;5045097;28;19951;-68
2022/09/25 02:54:10;;;;;;;;;;;9.50;99.90;;;;;;5047687;28;19978;-69
2022/09/25 02:56:52;;;;;;;;;;;9.60;99.90;;;;;;4975638;28;20305;-69
2022/09/25 02:59:21;;;;;;;;;;;9.60;99.90;;;;;;5041820;28;19955;-68
2022/09/25 03:01:47;;;;;;;;;;;9.70;99.90;;;;;;5036776;28;19916;-69
2022/09/25 03:04:15;;;;;;;;;;;9.70;99.90;;;;;;5038296;28;19920;-69
2022/09/25 03:06:41;;;;;;;;;;;9.80;99.90;;;;;;5041289;28;19921;-68
2022/09/25 03:09:07;;;;;;;;;;;9.90;99.90;;;;;;5040442;28;19924;-68
2022/09/25 03:11:35;;;;;;;;;;;9.90;99.90;;;;;;5051091;28;20433;-68
2022/09/25 03:14:01;;;;;;;;;;;10.00;99.90;;;;;;5039668;28;20122;-69
2022/09/25 03:16:46;;;;;;;;;;;9.90;99.90;;;;;;5051900;28;19917;-69
2022/09/25 03:19:12;;;;;;;;;;;10.00;99.90;;;;;;5044195;28;20486;-69
2022/09/25 03:21:38;;;;;;;;;;;9.90;99.90;;;;;;5040320;28;19916;-67
2022/09/25 03:24:03;;;;;;;;;;;9.90;99.90;;;;;;5044973;28;19994;-69
2022/09/25 03:26:29;;;;;;;;;;;10.00;99.90;;;;;;5039145;28;19996;-69
2022/09/25 03:28:55;;;;;;;;;;;9.90;99.90;;;;;;5039988;28;20062;-69
2022/09/25 03:31:20;;;;;;;;;;;9.90;99.90;;;;;;5036560;28;20015;-69
2022/09/25 03:33:46;;;;;;;;;;;9.80;99.90;;;;;;5041719;28;19917;-69
2022/09/25 03:36:15;;;;;;;;;;;9.70;99.90;;;;;;5041021;28;20397;-69
2022/09/25 03:38:41;;;;;;;;;;;9.70;99.90;;;;;;5039238;28;20395;-69
2022/09/25 03:41:08;;;;;;;;;;;9.70;99.90;;;;;;5043075;28;20350;-69
2022/09/25 03:43:38;;;;;;;;;;;9.70;99.90;;;;;;5040001;28;20466;-69
2022/09/25 03:46:04;;;;;;;;;;;9.60;99.90;;;;;;5021190;28;20359;-68
2022/09/25 03:48:30;;;;;;;;;;;9.50;99.90;;;;;;5042380;28;19924;-69
2022/09/25 03:50:55;;;;;;;;;;;9.50;99.90;;;;;;5038714;28;20059;-69
2022/09/25 03:53:21;;;;;;;;;;;9.40;99.90;;;;;;5044698;28;19917;-69
2022/09/25 03:55:47;;;;;;;;;;;9.40;99.90;;;;;;5037904;28;20303;-69
2022/09/25 03:58:16;;;;;;;;;;;9.30;99.90;;;;;;5044455;28;19931;-69
2022/09/25 04:00:42;;;;;;;;;;;9.30;99.90;;;;;;5042274;28;19921;-68
2022/09/25 04:03:07;;;;;;;;;;;9.30;99.90;;;;;;5046882;28;20016;-68
2022/09/25 04:05:33;;;;;;;;;;;9.20;99.90;;;;;;5039550;28;20518;-68
2022/09/25 04:08:00;;;;;;;;;;;9.20;99.90;;;;;;5048042;28;19916;-68
2022/09/25 04:10:26;;;;;;;;;;;9.20;99.90;;;;;;5041030;28;19916;-68
2022/09/25 04:12:53;;;;;;;;;;;9.20;99.90;;;;;;5038910;28;20283;-68
2022/09/25 04:15:21;;;;;;;;;;;9.20;99.90;;;;;;5039098;28;20164;-68
2022/09/25 04:17:47;;;;;;;;;;;9.20;99.90;;;;;;5038636;28;19927;-68
2022/09/25 04:20:12;;;;;;;;;;;9.20;99.90;;;;;;5039250;28;19917;-68
2022/09/25 04:22:38;;;;;;;;;;;9.30;99.90;;;;;;5038178;28;20030;-68
2022/09/25 04:25:04;;;;;;;;;;;9.20;99.90;;;;;;5038811;28;19917;-68
2022/09/25 04:27:29;;;;;;;;;;;9.20;99.90;;;;;;5038683;28;19920;-68
2022/09/25 04:29:56;;;;;;;;;;;9.20;99.90;;;;;;5038824;28;20018;-68
2022/09/25 04:35:05;;;;;;;;;;;9.20;99.90;;;;;;5024036;28;19953;-68
2022/09/25 04:37:31;;;;;;;;;;;9.20;99.90;;;;;;5034200;28;19920;-68
2022/09/25 04:39:57;;;;;;;;;;;9.20;99.90;;;;;;5034837;28;19921;-68
2022/09/25 04:42:26;;;;;;;;;;;9.20;99.90;;;;;;5036691;28;20447;-68
2022/09/25 04:44:52;;;;;;;;;;;9.10;99.90;;;;;;5036624;28;20394;-68
2022/09/25 04:47:18;;;;;;;;;;;9.10;99.90;;;;;;5036044;28;19923;-68
2022/09/25 04:49:44;;;;;;;;;;;9.10;99.90;;;;;;5036486;28;19981;-68
2022/09/25 04:52:11;;;;;;;;;;;9.10;99.90;;;;;;5033984;28;20464;-68
2022/09/25 04:54:36;;;;;;;;;;;9.00;99.90;;;;;;5034501;28;19923;-68
2022/09/25 04:57:02;;;;;;;;;;;9.00;99.90;;;;;;5039140;28;19917;-68
2022/09/25 04:59:28;;;;;;;;;;;9.00;99.90;;;;;;5036421;28;19921;-68
2022/09/25 05:01:53;;;;;;;;;;;8.90;99.90;;;;;;5035598;28;19989;-68
2022/09/25 05:04:19;;;;;;;;;;;8.90;99.90;;;;;;5031581;28;19937;-68
2022/09/25 05:06:44;;;;;;;;;;;8.80;99.90;;;;;;5015896;28;19917;-68
2022/09/25 05:09:10;;;;;;;;;;;8.90;99.90;;;;;;5021381;28;19980;-68
2022/09/25 05:11:35;;;;;;;;;;;8.80;99.90;;;;;;5017670;28;20253;-68
2022/09/25 05:14:01;;;;;;;;;;;8.80;99.90;;;;;;5018143;28;19921;-68
2022/09/25 05:16:29;;;;;;;;;;;8.80;99.90;;;;;;5019938;28;19917;-69
2022/09/25 05:18:55;;;;;;;;;;;8.70;99.90;;;;;;5021056;28;19937;-68
2022/09/25 05:21:21;;;;;;;;;;;8.70;99.90;;;;;;5026339;28;19923;-68
2022/09/25 05:23:46;;;;;;;;;;;8.70;99.90;;;;;;5024681;28;20276;-68
2022/09/25 05:26:12;;;;;;;;;;;8.60;99.90;;;;;;5017547;28;19971;-68
2022/09/25 05:28:37;;;;;;;;;;;8.60;99.90;;;;;;5019855;28;19917;-68
2022/09/25 05:31:03;;;;;;;;;;;8.60;99.90;;;;;;5023314;28;20036;-68
2022/09/25 05:33:30;;;;;;;;;;;8.50;99.90;;;;;;5024933;28;19917;-68
2022/09/25 05:35:59;;;;;;;;;;;8.60;99.90;;;;;;5021818;28;19937;-68
2022/09/25 05:38:24;;;;;;;;;;;8.60;99.90;;;;;;5022015;28;19925;-68
2022/09/25 05:40:51;;;;;;;;;;;8.60;99.90;;;;;;5009532;28;20486;-68
2022/09/25 05:43:17;;;;;;;;;;;8.50;99.90;;;;;;5007975;28;19916;-69
2022/09/25 05:45:42;;;;;;;;;;;8.40;99.90;;;;;;5023982;28;19971;-68
2022/09/25 05:48:08;;;;;;;;;;;8.40;99.90;;;;;;5033212;28;20407;-68
2022/09/25 05:50:34;;;;;;;;;;;8.30;99.90;;;;;;5031064;28;19921;-68
2022/09/25 05:53:01;;;;;;;;;;;8.40;99.90;;;;;;5025803;28;19917;-68
2022/09/25 05:55:26;;;;;;;;;;;8.30;99.90;;;;;;5017858;28;20015;-68
2022/09/25 05:57:52;;;;;;;;;;;8.30;99.90;;;;;;5022367;28;19925;-68
2022/09/25 06:00:18;;;;;;;;;;;8.30;99.90;;;;;;5022285;28;20615;-67
2022/09/25 06:02:43;;;;;;;;;;;8.30;99.90;;;;;;5021514;28;20004;-68
2022/09/25 06:05:09;;;;;;;;;;;8.30;99.90;;;;;;5018437;28;19925;-67
2022/09/25 06:07:35;;;;;;;;;;;8.30;99.90;;;;;;5019118;28;20011;-68
2022/09/25 06:10:00;;;;;;;;;;;8.30;99.90;;;;;;5019966;28;20304;-68
2022/09/25 06:12:29;;;;;;;;;;;8.30;99.90;;;;;;5025850;28;19916;-68
2022/09/25 06:14:54;;;;;;;;;;;8.30;99.90;;;;;;5016475;28;20277;-68
2022/09/25 06:17:20;;;;;;;;;;;8.40;99.90;;;;;;5018247;28;22218;-68
2022/09/25 06:19:45;;;;;;;;;;;8.50;99.90;;;;;;5019514;28;20365;-68
2022/09/25 06:22:11;;;;;;;;;;;8.70;99.90;;;;;;5017174;28;19940;-67
2022/09/25 06:24:36;;;;;;;;;;;8.60;99.90;;;;;;5017178;28;19917;-67
2022/09/25 06:27:02;;;;;;;;;;;8.60;99.90;;;;;;5016441;28;19928;-68
2022/09/25 06:29:27;;;;;;;;;;;8.70;99.90;;;;;;5013124;28;20388;-68
2022/09/25 06:31:53;;;;;;;;;;;8.60;99.90;;;;;;5020450;28;19917;-68
2022/09/25 06:34:19;;;;;;;;;;;8.70;99.90;;;;;;5029213;28;19947;-68
2022/09/25 06:36:44;;;;;;;;;;;8.70;99.90;;;;;;5021219;28;19917;-68
2022/09/25 06:39:09;;;;;;;;;;;8.80;99.90;;;;;;5017379;28;19929;-68
2022/09/25 06:41:35;;;;;;;;;;;9.00;99.90;;;;;;5016411;28;19970;-68
2022/09/25 06:44:01;;;;;;;;;;;9.10;99.90;;;;;;5019344;28;19939;-68
2022/09/25 06:46:26;;;;;;;;;;;9.60;99.90;;;;;;5019887;28;20376;-67
2022/09/25 06:48:58;;;;;;;;;;;9.60;99.90;;;;;;5015733;28;19918;-68
2022/09/25 06:51:30;;;;;;;;;;;9.70;99.90;;;;;;5014607;28;20716;-67
2022/09/25 06:53:55;;;;;;;;;;;9.70;99.90;;;;;;5015452;28;20395;-68
2022/09/25 06:56:21;;;;;;;;;;;9.60;99.90;;;;;;5024300;28;19996;-68
2022/09/25 06:58:46;;;;;;;;;;;9.50;99.90;;;;;;5005684;28;19932;-69
2022/09/25 07:01:12;;;;;;;;;;;9.70;99.90;;;;;;4998290;28;20080;-68
2022/09/25 07:03:44;;;;;;;;;;;9.70;99.90;;;;;;5016355;28;19921;-68
2022/09/25 07:06:11;;;;;;;;;;;9.70;99.90;;;;;;5012514;28;20207;-68
2022/09/25 07:08:37;;;;;;;;;;;9.70;99.90;;;;;;5011560;28;20348;-67
2022/09/25 07:11:03;;;;;;;;;;;9.70;99.90;;;;;;5013741;28;19979;-68
2022/09/25 07:13:30;;;;;;;;;;;9.70;99.90;;;;;;5017677;28;19921;-68
2022/09/25 07:15:55;;;;;;;;;;;9.80;99.90;;;;;;5010638;28;19949;-68
2022/09/25 07:18:22;;;;;;;;;;;9.90;99.90;;;;;;5016469;28;19972;-68
2022/09/25 07:20:47;;;;;;;;;;;9.80;99.90;;;;;;5014156;28;20120;-68
2022/09/25 07:23:13;;;;;;;;;;;9.90;99.90;;;;;;5011435;28;19917;-68
2022/09/25 07:25:39;;;;;;;;;;;10.00;99.90;;;;;;5010602;28;19917;-68
2022/09/25 07:28:06;;;;;;;;;;;10.00;99.90;;;;;;5011878;28;19917;-68
2022/09/25 07:30:31;;;;;;;;;;;10.10;99.90;;;;;;5008786;28;19960;-68
2022/09/25 07:32:57;;;;;;;;;;;10.20;99.90;;;;;;5009448;28;20699;-68
2022/09/25 07:35:22;;;;;;;;;;;10.20;99.90;;;;;;5009113;28;20276;-68
2022/09/25 07:37:48;;;;;;;;;;;10.30;99.90;;;;;;5012606;28;19929;-68
2022/09/25 07:40:14;;;;;;;;;;;10.40;99.90;;;;;;5007044;28;20304;-68
2022/09/25 07:42:40;;;;;;;;;;;10.60;99.90;;;;;;5015948;28;20358;-68
2022/09/25 07:45:06;;;;;;;;;;;10.70;99.90;;;;;;5012263;28;20087;-68
2022/09/25 07:47:32;;;;;;;;;;;10.80;99.90;;;;;;5005060;28;20285;-69
2022/09/25 07:49:57;;;;;;;;;;;10.90;99.90;;;;;;5012570;28;20004;-68
2022/09/25 07:52:23;;;;;;;;;;;11.10;99.90;;;;;;5006825;28;20040;-69
2022/09/25 07:54:48;;;;;;;;;;;11.20;99.90;;;;;;5002543;28;19917;-68
2022/09/25 07:57:14;;;;;;;;;;;11.50;99.90;;;;;;5006607;28;20016;-68
2022/09/25 07:59:40;;;;;;;;;;;12.00;99.90;;;;;;5007039;28;19921;-67
2022/09/25 08:02:05;;;;;;;;;;;12.20;99.90;;;;;;4997836;28;19917;-67
2022/09/25 08:04:30;;;;;;;;;;;12.90;99.90;;;;;;5007071;28;19963;-67
2022/09/25 08:06:59;;;;;;;;;;;13.80;99.90;;;;;;5015719;28;19920;-67
2022/09/25 08:09:25;;;;;;;;;;;15.40;99.90;;;;;;5029923;28;20019;-67
2022/09/25 08:11:51;;;;;;;;;;;17.70;99.90;;;;;;5033418;28;20099;-70
2022/09/25 08:14:17;;;;;;;;;;;20.80;99.90;;;;;;5013828;28;20326;-69
2022/09/25 08:16:43;;;;;;;;;;;23.50;91.00;;;;;;5011710;28;20383;-70
2022/09/25 08:19:09;;;;;;;;;;;25.80;74.80;;;;;;5036776;28;19921;-70
2022/09/25 08:21:35;;;;;;;;;;;27.20;65.00;;;;;;5020537;28;19913;-68
2022/09/25 08:24:00;;;;;;;;;;;28.70;57.40;;;;;;5033405;28;19951;-68
2022/09/25 08:26:27;;;;;;;;;;;29.20;55.20;;;;;;5022094;28;20442;-67
2022/09/25 08:28:53;;;;;;;;;;;30.50;52.40;;;;;;5042080;28;20432;-68
2022/09/25 08:31:18;;;;;;;;;;;30.20;49.20;;;;;;5040555;28;20403;-68
2022/09/25 08:33:45;;;;;;;;;;;30.20;49.40;;;;;;5033272;28;19939;-68
2022/09/25 08:36:10;;;;;;;;;;;29.90;48.40;;;;;;5031586;28;20377;-68
2022/09/25 08:38:36;;;;;;;;;;;29.80;47.40;;;;;;5039850;28;19935;-68
2022/09/25 08:41:02;;;;;;;;;;;29.70;48.60;;;;;;5038716;28;20296;-68
2022/09/25 08:43:29;;;;;;;;;;;29.50;48.10;;;;;;5035232;28;20400;-68
2022/09/25 08:49:01;;;;;;;;;;;30.40;47.20;;;;;;5039657;28;19924;-68
2022/09/25 08:51:27;;;;;;;;;;;30.20;46.50;;;;;;5035571;28;19917;-67
2022/09/25 08:53:53;;;;;;;;;;;30.90;46.30;;;;;;5019360;28;19948;-68
2022/09/25 08:56:18;;;;;;;;;;;30.70;46.10;;;;;;5029774;28;19917;-69
2022/09/25 08:59:02;;;;;;;;;;;30.40;45.00;;;;;;5003361;28;19932;-68
2022/09/25 09:01:35;;;;;;;;;;;30.00;46.50;;;;;;5038587;28;19917;-68
2022/09/25 09:04:00;;;;;;;;;;;30.10;47.10;;;;;;5030814;28;20545;-69
2022/09/25 09:06:26;;;;;;;;;;;29.40;46.40;;;;;;5026724;28;19940;-68
2022/09/25 09:08:54;;;;;;;;;;;29.30;47.00;;;;;;5025920;28;19921;-68
2022/09/25 09:11:43;;;;;;;;;;;30.00;46.80;;;;;;5029853;28;20248;-69
2022/09/25 09:14:17;;;;;;;;;;;29.80;45.60;;;;;;5012764;28;19922;-67
2022/09/25 09:16:42;;;;;;;;;;;29.70;45.40;;;;;;5023966;28;19924;-68
2022/09/25 09:19:09;;;;;;;;;;;29.30;47.70;;;;;;5034322;28;20300;-67
2022/09/25 09:21:36;;;;;;;;;;;29.40;45.10;;;;;;5038807;28;19964;-68
2022/09/25 09:24:34;;;;;;;;;;;29.10;46.50;;;;;;5036289;28;20178;-69
2022/09/25 09:26:59;;;;;;;;;;;29.10;47.60;;;;;;4993337;28;20364;-67
2022/09/25 09:29:38;;;;;;;;;;;29.10;47.40;;;;;;5038322;28;19982;-67
2022/09/25 09:32:10;;;;;;;;;;;29.80;48.70;;;;;;5036314;28;19937;-68
2022/09/25 09:34:59;;;;;;;;;;;30.00;48.50;;;;;;5035782;28;20280;-67
2022/09/25 09:37:30;;;;;;;;;;;29.30;48.00;;;;;;5015530;28;19953;-67
2022/09/25 09:40:18;;;;;;;;;;;28.30;48.20;;;;;;5026212;28;19923;-67
2022/09/25 09:42:44;;;;;;;;;;;27.50;49.20;;;;;;5026714;28;19917;-67
2022/09/25 09:45:29;;;;;;;;;;;25.30;53.30;;;;;;5036615;28;20407;-67
2022/09/25 09:48:01;;;;;;;;;;;25.30;55.50;;;;;;5037931;28;19920;-67
2022/09/25 09:50:35;;;;;;;;;;;24.40;55.90;;;;;;5028922;28;19924;-67
2022/09/25 09:53:04;;;;;;;;;;;24.90;54.50;;;;;;5016890;28;20070;-67
2022/09/25 09:55:35;;;;;;;;;;;24.40;57.40;;;;;;5024298;28;20383;-67
2022/09/25 09:58:04;;;;;;;;;;;23.30;58.00;;;;;;5021441;28;20011;-67
2022/09/25 10:00:31;;;;;;;;;;;22.80;61.90;;;;;;5024895;28;19987;-67
2022/09/25 10:02:58;;;;;;;;;;;21.80;60.60;;;;;;5025368;28;20031;-67
2022/09/25 10:05:29;;;;;;;;;;;21.40;65.10;;;;;;5023972;28;20365;-67
2022/09/25 10:07:54;;;;;;;;;;;22.90;64.50;;;;;;5025008;28;19970;-67
2022/09/25 10:10:31;;;;;;;;;;;24.80;56.70;;;;;;5021992;28;19920;-67
2022/09/25 10:13:00;;;;;;;;;;;25.70;52.90;;;;;;5028375;28;19917;-67
2022/09/25 10:15:34;;;;;;;;;;;25.10;51.30;;;;;;5019498;28;19917;-67
2022/09/25 10:18:00;;;;;;;;;;;24.20;56.60;;;;;;5032093;28;20105;-67
2022/09/25 10:20:29;;;;;;;;;;;23.60;56.30;;;;;;5032849;28;19923;-67
2022/09/25 10:22:57;;;;;;;;;;;22.90;64.30;;;;;;5021784;28;20047;-67
2022/09/25 10:25:37;;;;;;;;;;;24.30;61.70;;;;;;5023206;28;20632;-67
2022/09/25 10:28:22;;;;;;;;;;;25.50;56.50;;;;;;5020733;28;19926;-67
2022/09/25 10:30:49;;;;;;;;;;;26.10;52.10;;;;;;5014754;28;19921;-67
2022/09/25 10:33:21;;;;;;;;;;;26.20;48.90;;;;;;5023252;28;20467;-67
2022/09/25 10:35:47;;;;;;;;;;;26.10;51.50;;;;;;5027995;28;19916;-67
2022/09/25 10:38:28;;;;;;;;;;;26.30;48.30;;;;;;5032854;28;19932;-67
2022/09/25 10:41:06;;;;;;;;;;;27.00;51.20;;;;;;5030143;28;19920;-67
2022/09/25 10:43:31;;;;;;;;;;;26.90;50.90;;;;;;5032048;28;20287;-66
2022/09/25 10:46:04;;;;;;;;;;;27.30;45.90;;;;;;5038598;28;19917;-66
2022/09/25 10:51:17;;;;;;;;;;;27.70;46.40;;;;;;5037895;28;19923;-67
2022/09/25 10:53:49;;;;;;;;;;;26.90;50.10;;;;;;5035976;28;20864;-66
2022/09/25 10:56:20;;;;;;;;;;;26.50;50.80;;;;;;5025950;28;20361;-67
2022/09/25 10:58:56;;;;;;;;;;;25.20;50.90;;;;;;5037728;28;19925;-66
2022/09/25 11:01:31;;;;;;;;;;;25.30;52.40;;;;;;5039970;28;19917;-66
2022/09/25 11:03:57;;;;;;;;;;;25.80;51.80;;;;;;5039818;28;20055;-67
2022/09/25 11:06:24;;;;;;;;;;;26.40;48.30;;;;;;5031910;28;19920;-67
2022/09/25 11:09:13;;;;;;;;;;;26.70;43.20;;;;;;5032099;28;20064;-66
2022/09/25 11:11:39;;;;;;;;;;;26.20;47.90;;;;;;5016660;28;19921;-66
2022/09/25 11:14:31;;;;;;;;;;;26.30;47.90;;;;;;5026181;28;19952;-67
2022/09/25 11:16:57;;;;;;;;;;;26.00;46.70;;;;;;5029103;28;20380;-67
2022/09/25 11:19:27;;;;;;;;;;;26.20;51.60;;;;;;5022685;28;20297;-66
2022/09/25 11:22:09;;;;;;;;;;;25.60;49.60;;;;;;5022567;28;19916;-66
2022/09/25 11:24:39;;;;;;;;;;;23.90;52.60;;;;;;5021960;28;19938;-66
2022/09/25 11:27:05;;;;;;;;;;;22.20;57.60;;;;;;5023160;28;19924;-68
2022/09/25 11:29:38;;;;;;;;;;;21.30;65.40;;;;;;5022159;28;19927;-68
2022/09/25 11:32:06;;;;;;;;;;;21.40;66.60;;;;;;5022939;28;20483;-69
2022/09/25 11:34:56;;;;;;;;;;;21.70;62.00;;;;;;5026696;28;19917;-68
2022/09/25 11:37:26;;;;;;;;;;;21.70;53.70;;;;;;5013412;28;19916;-68
2022/09/25 11:43:00;;;;;;;;;;;21.40;61.90;;;;;;5029489;28;19970;-68
2022/09/25 11:45:35;;;;;;;;;;;21.60;57.90;;;;;;5028913;28;20003;-68
2022/09/25 11:48:25;;;;;;;;;;;21.40;63.30;;;;;;5022080;28;19943;-68
2022/09/25 11:51:09;;;;;;;;;;;21.50;56.50;;;;;;5035039;28;20129;-68
2022/09/25 11:53:48;;;;;;;;;;;21.50;59.90;;;;;;5021783;28;19971;-68
2022/09/25 11:56:26;;;;;;;;;;;21.50;54.30;;;;;;5025777;28;19920;-69
2022/09/25 11:59:10;;;;;;;;;;;21.50;56.90;;;;;;5029333;28;20548;-69
2022/09/25 12:01:44;;;;;;;;;;;21.40;59.20;;;;;;5032422;28;19917;-69
2022/09/25 12:04:15;;;;;;;;;;;21.50;59.60;;;;;;5031607;28;20024;-66
2022/09/25 12:06:41;;;;;;;;;;;21.00;58.10;;;;;;5022677;28;19916;-68
2022/09/25 12:09:10;;;;;;;;;;;20.10;58.50;;;;;;5014976;28;19930;-69
2022/09/25 12:11:53;;;;;;;;;;;19.30;63.90;;;;;;5032629;28;19921;-68
2022/09/25 12:14:51;;;;;;;;;;;18.70;64.90;;;;;;5029230;28;19965;-70
2022/09/25 12:17:26;;;;;;;;;;;18.90;73.00;;;;;;4974253;28;19932;-70
2022/09/25 12:19:52;;;;;;;;;;;19.70;67.70;;;;;;5022451;28;19925;-70
2022/09/25 12:22:18;;;;;;;;;;;20.30;67.30;;;;;;5032931;28;20367;-71
2022/09/25 12:25:19;;;;;;;;;;;20.70;69.90;;;;;;5032445;28;20375;-69
2022/09/25 12:27:48;;;;;;;;;;;21.00;61.40;;;;;;5011766;28;20048;-70
2022/09/25 12:30:16;;;;;;;;;;;20.90;59.20;;;;;;5027263;28;19920;-70
2022/09/25 12:32:54;;;;;;;;;;;20.60;56.80;;;;;;5036274;28;19990;-70
2022/09/25 12:35:33;;;;;;;;;;;20.00;60.60;;;;;;5032156;28;20007;-70
2022/09/25 12:38:04;;;;;;;;;;;20.10;68.20;;;;;;5039088;28;19928;-70
2022/09/25 12:40:33;;;;;;;;;;;20.50;56.00;;;;;;5033788;28;20270;-70
2022/09/25 12:43:17;;;;;;;;;;;20.80;56.90;;;;;;5030833;28;19912;-70
2022/09/25 12:45:46;;;;;;;;;;;21.10;54.70;;;;;;5031790;28;19917;-70
2022/09/25 12:48:34;;;;;;;;;;;20.90;62.50;;;;;;5035234;28;20326;-70
2022/09/25 12:51:08;;;;;;;;;;;21.10;54.00;;;;;;5033092;28;19962;-70
2022/09/25 12:53:46;;;;;;;;;;;20.90;56.80;;;;;;5032305;28;20040;-68
2022/09/25 12:56:14;;;;;;;;;;;20.80;59.00;;;;;;5023539;28;19921;-69
2022/09/25 12:58:56;;;;;;;;;;;20.70;56.10;;;;;;5031315;28;19939;-70
2022/09/25 13:01:33;;;;;;;;;;;20.70;58.20;;;;;;5030559;28;19921;-70
2022/09/25 13:04:08;;;;;;;;;;;20.40;53.30;;;;;;5025370;28;19932;-69
2022/09/25 13:06:51;;;;;;;;;;;20.50;61.70;;;;;;5030330;28;19917;-69
2022/09/25 13:09:27;;;;;;;;;;;20.50;59.70;;;;;;5028590;28;19967;-69
2022/09/25 13:12:14;;;;;;;;;;;20.60;60.40;;;;;;5026133;28;19952;-69
2022/09/25 13:15:00;;;;;;;;;;;20.60;57.40;;;;;;5024065;28;20390;-69
2022/09/25 13:17:26;;;;;;;;;;;20.20;58.70;;;;;;5016376;28;19983;-69
2022/09/25 13:19:52;;;;;;;;;;;20.20;61.60;;;;;;5032287;28;20371;-69
2022/09/25 13:22:20;;;;;;;;;;;20.00;59.30;;;;;;5027381;28;19970;-69
2022/09/25 13:25:12;;;;;;;;;;;19.90;62.10;;;;;;5033830;28;20155;-69
2022/09/25 13:27:41;;;;;;;;;;;19.70;60.40;;;;;;5029613;28;20315;-69
2022/09/25 13:30:27;;;;;;;;;;;19.70;61.50;;;;;;5012958;28;19923;-69
2022/09/25 13:32:54;;;;;;;;;;;19.60;63.80;;;;;;5030792;28;20155;-68
2022/09/25 13:35:21;;;;;;;;;;;19.80;68.70;;;;;;5038386;28;19935;-69
2022/09/25 13:37:48;;;;;;;;;;;19.80;65.50;;;;;;5027013;28;20314;-69
2022/09/25 13:43:28;;;;;;;;;;;19.70;62.20;;;;;;5019434;28;19966;-69
2022/09/25 13:46:13;;;;;;;;;;;19.60;64.40;;;;;;5016832;28;19921;-69
2022/09/25 13:48:39;;;;;;;;;;;19.60;59.10;;;;;;5032959;28;19940;-69
2022/09/25 13:51:19;;;;;;;;;;;19.60;60.50;;;;;;5021389;28;19972;-68
2022/09/25 13:54:03;;;;;;;;;;;19.40;58.30;;;;;;5030279;28;19921;-68
2022/09/25 13:56:32;;;;;;;;;;;19.20;62.30;;;;;;5029654;28;19924;-69
2022/09/25 13:59:01;;;;;;;;;;;19.20;63.70;;;;;;5020331;28;19925;-69
2022/09/25 14:01:32;;;;;;;;;;;19.10;59.50;;;;;;5023862;28;20018;-69
2022/09/25 14:03:58;;;;;;;;;;;19.20;59.50;;;;;;5031692;28;19917;-69
2022/09/25 14:06:25;;;;;;;;;;;19.20;62.70;;;;;;5016160;28;20446;-69
2022/09/25 14:08:54;;;;;;;;;;;19.20;59.80;;;;;;5027485;28;19939;-69
2022/09/25 14:11:22;;;;;;;;;;;19.30;61.20;;;;;;5036921;28;19924;-68
2022/09/25 14:13:50;;;;;;;;;;;19.30;59.00;;;;;;5029326;28;19917;-69
2022/09/25 14:16:33;;;;;;;;;;;19.20;62.70;;;;;;5026129;28;20337;-68
2022/09/25 14:19:02;;;;;;;;;;;19.10;64.50;;;;;;5036199;28;19925;-68
2022/09/25 14:21:29;;;;;;;;;;;19.10;62.30;;;;;;5013603;28;19959;-69
2022/09/25 14:23:56;;;;;;;;;;;19.00;66.30;;;;;;5035706;28;19960;-69
2022/09/25 14:26:27;;;;;;;;;;;19.10;61.60;;;;;;5035346;28;19927;-68
2022/09/25 14:28:54;;;;;;;;;;;19.10;60.30;;;;;;5023942;28;20020;-69
2022/09/25 14:31:38;;;;;;;;;;;18.90;62.90;;;;;;5032104;28;19967;-69
2022/09/25 14:34:04;;;;;;;;;;;18.90;64.50;;;;;;5033685;28;19917;-68
2022/09/25 14:36:33;;;;;;;;;;;19.00;65.50;;;;;;5017949;28;19920;-68
2022/09/25 14:38:59;;;;;;;;;;;18.90;64.40;;;;;;5023772;28;20019;-69
2022/09/25 14:41:33;;;;;;;;;;;18.80;66.80;;;;;;5017114;28;20723;-69
2022/09/25 14:44:16;;;;;;;;;;;18.80;66.70;;;;;;5020295;28;19917;-68
2022/09/25 14:46:43;;;;;;;;;;;18.70;70.20;;;;;;5034949;28;19947;-68
2022/09/25 14:49:15;;;;;;;;;;;18.50;66.30;;;;;;5026228;28;21132;-69
2022/09/25 14:51:43;;;;;;;;;;;18.40;68.90;;;;;;5031450;28;19924;-69
2022/09/25 14:54:14;;;;;;;;;;;18.30;72.40;;;;;;5027873;28;19916;-68